sensor_id;sensor_type;location;lat;lon;timestamp;P1;durP1;ratioP1;P2;durP2;ratioP2
21293;SDS011;10806;52.250;21.066;2022-09-17T00:02:20;10.95;;;3.40;;
21293;SDS011;10806;52.250;21.066;2022-09-17T00:04:47;18.75;;;3.50;;
21293;SDS011;10806;52.250;21.066;2022-09-17T00:07:13;11.98;;;3.30;;
21293;SDS011;10806;52.250;21.066;2022-09-17T00:09:39;10.35;;;3.15;;
21293;SDS011;10806;52.250;21.066;2022-09-17T00:12:05;8.40;;;3.33;;
21293;SDS011;10806;52.250;21.066;2022-09-17T00:14:31;9.35;;;3.10;;
21293;SDS011;10806;52.250;21.066;2022-09-17T00:16:56;14.23;;;3.20;;
21293;SDS011;10806;52.250;21.066;2022-09-17T00:19:22;11.40;;;3.60;;
21293;SDS011;10806;52.250;21.066;2022-09-17T00:21:49;9.27;;;3.67;;
21293;SDS011;10806;52.250;21.066;2022-09-17T00:24:15;11.18;;;3.30;;
21293;SDS011;10806;52.250;21.066;2022-09-17T00:26:42;16.80;;;3.40;;
21293;SDS011;10806;52.250;21.066;2022-09-17T00:29:08;9.32;;;2.83;;
21293;SDS011;10806;52.250;21.066;2022-09-17T00:31:34;21.35;;;3.80;;
21293;SDS011;10806;52.250;21.066;2022-09-17T00:34:01;6.30;;;2.78;;
21293;SDS011;10806;52.250;21.066;2022-09-17T00:36:27;10.10;;;3.00;;
21293;SDS011;10806;52.250;21.066;2022-09-17T00:38:54;8.15;;;2.92;;
21293;SDS011;10806;52.250;21.066;2022-09-17T00:41:22;7.00;;;3.28;;
21293;SDS011;10806;52.250;21.066;2022-09-17T00:43:50;11.25;;;3.45;;
21293;SDS011;10806;52.250;21.066;2022-09-17T00:49:09;8.88;;;3.15;;
21293;SDS011;10806;52.250;21.066;2022-09-17T00:51:38;7.70;;;2.90;;
21293;SDS011;10806;52.250;21.066;2022-09-17T00:54:13;10.13;;;3.40;;
21293;SDS011;10806;52.250;21.066;2022-09-17T00:56:40;9.80;;;3.25;;
21293;SDS011;10806;52.250;21.066;2022-09-17T00:59:07;8.43;;;2.97;;
21293;SDS011;10806;52.250;21.066;2022-09-17T01:01:34;13.95;;;3.28;;
21293;SDS011;10806;52.250;21.066;2022-09-17T01:04:01;8.35;;;3.03;;
21293;SDS011;10806;52.250;21.066;2022-09-17T01:08:59;7.22;;;2.80;;
21293;SDS011;10806;52.250;21.066;2022-09-17T01:11:31;5.90;;;2.70;;
21293;SDS011;10806;52.250;21.066;2022-09-17T01:14:18;9.65;;;2.70;;
21293;SDS011;10806;52.250;21.066;2022-09-17T01:16:54;13.27;;;3.10;;
21293;SDS011;10806;52.250;21.066;2022-09-17T01:19:46;8.63;;;2.70;;
21293;SDS011;10806;52.250;21.066;2022-09-17T01:25:22;6.55;;;2.47;;
21293;SDS011;10806;52.250;21.066;2022-09-17T01:36:21;6.30;;;2.60;;
21293;SDS011;10806;52.250;21.066;2022-09-17T01:44:44;6.25;;;2.60;;
21293;SDS011;10806;52.250;21.066;2022-09-17T01:47:21;7.03;;;2.60;;
21293;SDS011;10806;52.250;21.066;2022-09-17T01:49:50;6.53;;;2.60;;
21293;SDS011;10806;52.250;21.066;2022-09-17T01:52:21;5.57;;;2.60;;
21293;SDS011;10806;52.250;21.066;2022-09-17T01:54:50;7.05;;;2.75;;
21293;SDS011;10806;52.250;21.066;2022-09-17T01:58:07;6.28;;;2.53;;
21293;SDS011;10806;52.250;21.066;2022-09-17T02:00:12;7.28;;;2.60;;
21293;SDS011;10806;52.250;21.066;2022-09-17T02:02:55;5.15;;;2.50;;
21293;SDS011;10806;52.250;21.066;2022-09-17T02:05:27;7.07;;;2.80;;
21293;SDS011;10806;52.250;21.066;2022-09-17T02:08:07;4.43;;;2.65;;
21293;SDS011;10806;52.250;21.066;2022-09-17T02:10:47;5.18;;;2.28;;
21293;SDS011;10806;52.250;21.066;2022-09-17T02:16:13;7.75;;;2.47;;
21293;SDS011;10806;52.250;21.066;2022-09-17T02:18:53;5.85;;;2.65;;
21293;SDS011;10806;52.250;21.066;2022-09-17T02:21:34;5.70;;;3.00;;
21293;SDS011;10806;52.250;21.066;2022-09-17T02:26:44;6.88;;;2.67;;
21293;SDS011;10806;52.250;21.066;2022-09-17T02:29:18;4.60;;;2.20;;
21293;SDS011;10806;52.250;21.066;2022-09-17T02:31:48;8.27;;;2.85;;
21293;SDS011;10806;52.250;21.066;2022-09-17T02:34:15;6.13;;;2.80;;
21293;SDS011;10806;52.250;21.066;2022-09-17T02:36:40;7.32;;;2.30;;
21293;SDS011;10806;52.250;21.066;2022-09-17T02:39:07;7.93;;;2.30;;
21293;SDS011;10806;52.250;21.066;2022-09-17T02:41:43;5.63;;;2.30;;
21293;SDS011;10806;52.250;21.066;2022-09-17T03:00:14;6.13;;;2.35;;
21293;SDS011;10806;52.250;21.066;2022-09-17T03:05:31;4.32;;;2.28;;
21293;SDS011;10806;52.250;21.066;2022-09-17T03:07:59;3.20;;;2.05;;
21293;SDS011;10806;52.250;21.066;2022-09-17T03:10:25;7.35;;;2.60;;
21293;SDS011;10806;52.250;21.066;2022-09-17T03:12:54;7.13;;;2.40;;
21293;SDS011;10806;52.250;21.066;2022-09-17T03:15:19;7.13;;;2.42;;
21293;SDS011;10806;52.250;21.066;2022-09-17T03:17:45;4.90;;;2.15;;
21293;SDS011;10806;52.250;21.066;2022-09-17T03:20:11;4.80;;;1.90;;
21293;SDS011;10806;52.250;21.066;2022-09-17T03:22:36;4.15;;;2.38;;
21293;SDS011;10806;52.250;21.066;2022-09-17T03:25:02;4.65;;;2.38;;
21293;SDS011;10806;52.250;21.066;2022-09-17T03:27:28;4.68;;;2.13;;
21293;SDS011;10806;52.250;21.066;2022-09-17T03:29:53;9.05;;;2.60;;
21293;SDS011;10806;52.250;21.066;2022-09-17T03:32:19;5.75;;;2.45;;
21293;SDS011;10806;52.250;21.066;2022-09-17T03:34:44;3.50;;;1.98;;
21293;SDS011;10806;52.250;21.066;2022-09-17T03:37:11;3.95;;;1.88;;
21293;SDS011;10806;52.250;21.066;2022-09-17T03:39:37;8.25;;;2.00;;
21293;SDS011;10806;52.250;21.066;2022-09-17T03:42:02;5.18;;;2.53;;
21293;SDS011;10806;52.250;21.066;2022-09-17T03:44:28;5.78;;;2.38;;
21293;SDS011;10806;52.250;21.066;2022-09-17T03:46:53;3.67;;;1.92;;
21293;SDS011;10806;52.250;21.066;2022-09-17T03:49:19;5.10;;;2.08;;
21293;SDS011;10806;52.250;21.066;2022-09-17T03:51:45;3.38;;;2.00;;
21293;SDS011;10806;52.250;21.066;2022-09-17T03:54:10;3.42;;;2.03;;
21293;SDS011;10806;52.250;21.066;2022-09-17T03:56:36;3.80;;;1.92;;
21293;SDS011;10806;52.250;21.066;2022-09-17T03:59:01;3.35;;;2.03;;
21293;SDS011;10806;52.250;21.066;2022-09-17T04:01:27;4.25;;;2.10;;
21293;SDS011;10806;52.250;21.066;2022-09-17T04:03:53;4.32;;;2.10;;
21293;SDS011;10806;52.250;21.066;2022-09-17T04:06:19;8.35;;;2.15;;
21293;SDS011;10806;52.250;21.066;2022-09-17T04:08:45;4.13;;;1.88;;
21293;SDS011;10806;52.250;21.066;2022-09-17T04:11:10;5.93;;;2.15;;
21293;SDS011;10806;52.250;21.066;2022-09-17T04:13:36;7.97;;;2.55;;
21293;SDS011;10806;52.250;21.066;2022-09-17T04:16:02;4.57;;;1.88;;
21293;SDS011;10806;52.250;21.066;2022-09-17T04:18:28;6.25;;;1.95;;
21293;SDS011;10806;52.250;21.066;2022-09-17T04:20:53;5.90;;;2.38;;
21293;SDS011;10806;52.250;21.066;2022-09-17T04:23:19;3.58;;;2.00;;
21293;SDS011;10806;52.250;21.066;2022-09-17T04:25:45;4.13;;;1.90;;
21293;SDS011;10806;52.250;21.066;2022-09-17T04:28:10;7.88;;;2.30;;
21293;SDS011;10806;52.250;21.066;2022-09-17T04:30:36;4.95;;;1.80;;
21293;SDS011;10806;52.250;21.066;2022-09-17T04:33:02;4.38;;;2.30;;
21293;SDS011;10806;52.250;21.066;2022-09-17T04:35:28;9.02;;;2.13;;
21293;SDS011;10806;52.250;21.066;2022-09-17T04:37:54;5.68;;;2.55;;
21293;SDS011;10806;52.250;21.066;2022-09-17T04:40:21;4.43;;;2.00;;
21293;SDS011;10806;52.250;21.066;2022-09-17T04:42:47;4.15;;;1.90;;
21293;SDS011;10806;52.250;21.066;2022-09-17T04:45:17;4.70;;;2.05;;
21293;SDS011;10806;52.250;21.066;2022-09-17T04:47:42;5.75;;;2.08;;
21293;SDS011;10806;52.250;21.066;2022-09-17T04:50:08;4.43;;;2.15;;
21293;SDS011;10806;52.250;21.066;2022-09-17T04:52:34;4.43;;;2.05;;
21293;SDS011;10806;52.250;21.066;2022-09-17T04:55:00;5.82;;;2.10;;
21293;SDS011;10806;52.250;21.066;2022-09-17T04:57:26;3.97;;;2.20;;
21293;SDS011;10806;52.250;21.066;2022-09-17T04:59:51;4.43;;;2.42;;
21293;SDS011;10806;52.250;21.066;2022-09-17T05:02:17;4.18;;;2.20;;
21293;SDS011;10806;52.250;21.066;2022-09-17T05:04:43;4.03;;;2.20;;
21293;SDS011;10806;52.250;21.066;2022-09-17T05:07:08;5.82;;;2.25;;
21293;SDS011;10806;52.250;21.066;2022-09-17T05:09:34;3.75;;;1.95;;
21293;SDS011;10806;52.250;21.066;2022-09-17T05:12:00;4.07;;;2.17;;
21293;SDS011;10806;52.250;21.066;2022-09-17T05:14:26;4.38;;;2.30;;
21293;SDS011;10806;52.250;21.066;2022-09-17T05:16:51;3.70;;;2.17;;
21293;SDS011;10806;52.250;21.066;2022-09-17T05:19:17;3.28;;;1.88;;
21293;SDS011;10806;52.250;21.066;2022-09-17T05:21:42;4.20;;;2.35;;
21293;SDS011;10806;52.250;21.066;2022-09-17T05:24:08;7.25;;;2.00;;
21293;SDS011;10806;52.250;21.066;2022-09-17T05:26:34;6.97;;;2.17;;
21293;SDS011;10806;52.250;21.066;2022-09-17T05:28:59;3.60;;;1.73;;
21293;SDS011;10806;52.250;21.066;2022-09-17T05:31:25;6.10;;;2.20;;
21293;SDS011;10806;52.250;21.066;2022-09-17T05:33:50;25.08;;;2.63;;
21293;SDS011;10806;52.250;21.066;2022-09-17T05:36:22;19.75;;;3.15;;
21293;SDS011;10806;52.250;21.066;2022-09-17T05:38:48;13.30;;;2.70;;
21293;SDS011;10806;52.250;21.066;2022-09-17T05:41:14;18.33;;;2.88;;
21293;SDS011;10806;52.250;21.066;2022-09-17T05:43:41;16.38;;;3.25;;
21293;SDS011;10806;52.250;21.066;2022-09-17T05:46:07;17.35;;;3.13;;
21293;SDS011;10806;52.250;21.066;2022-09-17T05:48:33;12.63;;;2.80;;
21293;SDS011;10806;52.250;21.066;2022-09-17T05:50:58;13.05;;;2.78;;
21293;SDS011;10806;52.250;21.066;2022-09-17T05:53:24;12.35;;;2.78;;
21293;SDS011;10806;52.250;21.066;2022-09-17T05:55:50;8.27;;;2.50;;
21293;SDS011;10806;52.250;21.066;2022-09-17T05:58:16;23.40;;;2.78;;
21293;SDS011;10806;52.250;21.066;2022-09-17T06:00:43;11.50;;;2.78;;
21293;SDS011;10806;52.250;21.066;2022-09-17T06:03:13;22.85;;;2.72;;
21293;SDS011;10806;52.250;21.066;2022-09-17T06:05:40;17.42;;;2.88;;
21293;SDS011;10806;52.250;21.066;2022-09-17T06:08:06;15.55;;;2.53;;
21293;SDS011;10806;52.250;21.066;2022-09-17T06:10:34;10.15;;;2.40;;
21293;SDS011;10806;52.250;21.066;2022-09-17T06:13:01;10.45;;;2.70;;
21293;SDS011;10806;52.250;21.066;2022-09-17T06:15:27;12.65;;;2.88;;
21293;SDS011;10806;52.250;21.066;2022-09-17T06:17:52;13.55;;;2.63;;
21293;SDS011;10806;52.250;21.066;2022-09-17T06:20:18;8.70;;;2.90;;
21293;SDS011;10806;52.250;21.066;2022-09-17T06:22:45;12.18;;;2.42;;
21293;SDS011;10806;52.250;21.066;2022-09-17T06:25:10;7.47;;;2.47;;
21293;SDS011;10806;52.250;21.066;2022-09-17T06:27:36;6.75;;;2.70;;
21293;SDS011;10806;52.250;21.066;2022-09-17T06:30:02;16.85;;;2.72;;
21293;SDS011;10806;52.250;21.066;2022-09-17T06:32:29;12.93;;;2.90;;
21293;SDS011;10806;52.250;21.066;2022-09-17T06:34:54;16.90;;;2.75;;
21293;SDS011;10806;52.250;21.066;2022-09-17T06:37:27;14.05;;;2.80;;
21293;SDS011;10806;52.250;21.066;2022-09-17T06:39:54;19.17;;;3.42;;
21293;SDS011;10806;52.250;21.066;2022-09-17T06:42:20;21.23;;;2.38;;
21293;SDS011;10806;52.250;21.066;2022-09-17T06:44:46;25.80;;;2.92;;
21293;SDS011;10806;52.250;21.066;2022-09-17T06:47:12;10.73;;;2.58;;
21293;SDS011;10806;52.250;21.066;2022-09-17T06:49:37;16.92;;;2.60;;
21293;SDS011;10806;52.250;21.066;2022-09-17T06:52:03;12.50;;;2.25;;
21293;SDS011;10806;52.250;21.066;2022-09-17T06:54:28;12.75;;;2.38;;
21293;SDS011;10806;52.250;21.066;2022-09-17T06:56:55;21.55;;;2.80;;
21293;SDS011;10806;52.250;21.066;2022-09-17T06:59:20;13.85;;;2.78;;
21293;SDS011;10806;52.250;21.066;2022-09-17T07:01:46;17.65;;;3.35;;
21293;SDS011;10806;52.250;21.066;2022-09-17T07:04:12;15.32;;;2.53;;
21293;SDS011;10806;52.250;21.066;2022-09-17T07:06:38;13.93;;;2.40;;
21293;SDS011;10806;52.250;21.066;2022-09-17T07:09:03;9.73;;;2.70;;
21293;SDS011;10806;52.250;21.066;2022-09-17T07:11:29;23.67;;;3.30;;
21293;SDS011;10806;52.250;21.066;2022-09-17T07:13:55;27.00;;;3.30;;
21293;SDS011;10806;52.250;21.066;2022-09-17T07:16:22;25.73;;;4.15;;
21293;SDS011;10806;52.250;21.066;2022-09-17T07:18:47;18.38;;;3.90;;
21293;SDS011;10806;52.250;21.066;2022-09-17T07:21:13;22.58;;;4.03;;
21293;SDS011;10806;52.250;21.066;2022-09-17T07:23:39;29.00;;;4.18;;
21293;SDS011;10806;52.250;21.066;2022-09-17T07:26:11;24.23;;;3.63;;
21293;SDS011;10806;52.250;21.066;2022-09-17T07:28:37;19.08;;;3.90;;
21293;SDS011;10806;52.250;21.066;2022-09-17T07:31:04;33.38;;;4.35;;
21293;SDS011;10806;52.250;21.066;2022-09-17T07:33:30;29.73;;;4.10;;
21293;SDS011;10806;52.250;21.066;2022-09-17T07:38:23;22.65;;;4.72;;
21293;SDS011;10806;52.250;21.066;2022-09-17T07:40:59;22.17;;;3.72;;
21293;SDS011;10806;52.250;21.066;2022-09-17T07:43:27;30.60;;;4.78;;
21293;SDS011;10806;52.250;21.066;2022-09-17T07:45:55;19.95;;;4.13;;
21293;SDS011;10806;52.250;21.066;2022-09-17T07:48:22;20.83;;;4.38;;
21293;SDS011;10806;52.250;21.066;2022-09-17T07:50:48;21.88;;;4.70;;
21293;SDS011;10806;52.250;21.066;2022-09-17T07:53:14;24.83;;;4.35;;
21293;SDS011;10806;52.250;21.066;2022-09-17T07:55:40;13.15;;;3.67;;
21293;SDS011;10806;52.250;21.066;2022-09-17T07:58:06;14.13;;;3.88;;
21293;SDS011;10806;52.250;21.066;2022-09-17T08:00:32;18.52;;;4.45;;
21293;SDS011;10806;52.250;21.066;2022-09-17T08:02:58;12.48;;;4.15;;
21293;SDS011;10806;52.250;21.066;2022-09-17T08:05:24;28.98;;;4.47;;
21293;SDS011;10806;52.250;21.066;2022-09-17T08:07:53;14.63;;;3.80;;
21293;SDS011;10806;52.250;21.066;2022-09-17T08:10:20;22.85;;;4.85;;
21293;SDS011;10806;52.250;21.066;2022-09-17T08:12:53;17.38;;;4.38;;
21293;SDS011;10806;52.250;21.066;2022-09-17T08:15:20;14.23;;;4.18;;
21293;SDS011;10806;52.250;21.066;2022-09-17T08:17:46;15.32;;;3.90;;
21293;SDS011;10806;52.250;21.066;2022-09-17T08:20:13;15.38;;;3.92;;
21293;SDS011;10806;52.250;21.066;2022-09-17T08:22:39;15.18;;;4.15;;
21293;SDS011;10806;52.250;21.066;2022-09-17T08:25:06;20.20;;;3.90;;
21293;SDS011;10806;52.250;21.066;2022-09-17T08:27:33;15.02;;;3.75;;
21293;SDS011;10806;52.250;21.066;2022-09-17T08:29:59;13.85;;;3.60;;
21293;SDS011;10806;52.250;21.066;2022-09-17T08:32:24;16.08;;;3.55;;
21293;SDS011;10806;52.250;21.066;2022-09-17T08:34:50;13.38;;;3.92;;
21293;SDS011;10806;52.250;21.066;2022-09-17T08:37:18;9.13;;;3.50;;
21293;SDS011;10806;52.250;21.066;2022-09-17T08:39:44;13.00;;;3.25;;
21293;SDS011;10806;52.250;21.066;2022-09-17T08:45:08;14.65;;;4.22;;
21293;SDS011;10806;52.250;21.066;2022-09-17T08:47:38;18.42;;;3.75;;
21293;SDS011;10806;52.250;21.066;2022-09-17T08:50:15;10.45;;;2.97;;
21293;SDS011;10806;52.250;21.066;2022-09-17T08:55:46;11.23;;;3.42;;
21293;SDS011;10806;52.250;21.066;2022-09-17T09:04:01;14.88;;;3.03;;
21293;SDS011;10806;52.250;21.066;2022-09-17T09:07:00;9.77;;;2.95;;
21293;SDS011;10806;52.250;21.066;2022-09-17T09:09:32;14.38;;;3.70;;
21293;SDS011;10806;52.250;21.066;2022-09-17T09:12:05;11.50;;;3.40;;
21293;SDS011;10806;52.250;21.066;2022-09-17T09:14:54;11.40;;;3.80;;
21293;SDS011;10806;52.250;21.066;2022-09-17T09:17:24;14.60;;;3.67;;
21293;SDS011;10806;52.250;21.066;2022-09-17T09:19:58;11.15;;;3.00;;
21293;SDS011;10806;52.250;21.066;2022-09-17T09:27:37;11.38;;;2.85;;
21293;SDS011;10806;52.250;21.066;2022-09-17T09:30:16;13.60;;;3.47;;
21293;SDS011;10806;52.250;21.066;2022-09-17T09:35:26;10.27;;;3.20;;
21293;SDS011;10806;52.250;21.066;2022-09-17T09:40:45;10.57;;;2.70;;
21293;SDS011;10806;52.250;21.066;2022-09-17T09:48:58;11.77;;;3.13;;
21293;SDS011;10806;52.250;21.066;2022-09-17T09:56:57;8.98;;;3.00;;
21293;SDS011;10806;52.250;21.066;2022-09-17T09:59:31;11.40;;;3.13;;
21293;SDS011;10806;52.250;21.066;2022-09-17T10:01:59;10.02;;;3.22;;
21293;SDS011;10806;52.250;21.066;2022-09-17T10:04:26;5.85;;;2.63;;
21293;SDS011;10806;52.250;21.066;2022-09-17T10:06:53;7.10;;;3.13;;
21293;SDS011;10806;52.250;21.066;2022-09-17T10:09:27;13.82;;;3.17;;
21293;SDS011;10806;52.250;21.066;2022-09-17T10:14:35;9.48;;;2.95;;
21293;SDS011;10806;52.250;21.066;2022-09-17T10:17:21;12.85;;;3.10;;
21293;SDS011;10806;52.250;21.066;2022-09-17T10:22:35;10.43;;;2.85;;
21293;SDS011;10806;52.250;21.066;2022-09-17T10:25:05;12.27;;;2.90;;
21293;SDS011;10806;52.250;21.066;2022-09-17T10:27:51;12.13;;;2.70;;
21293;SDS011;10806;52.250;21.066;2022-09-17T10:30:17;11.70;;;3.05;;
21293;SDS011;10806;52.250;21.066;2022-09-17T10:32:43;16.52;;;3.50;;
21293;SDS011;10806;52.250;21.066;2022-09-17T10:35:29;11.60;;;2.90;;
21293;SDS011;10806;52.250;21.066;2022-09-17T10:37:55;13.93;;;3.15;;
21293;SDS011;10806;52.250;21.066;2022-09-17T10:40:25;18.23;;;2.92;;
21293;SDS011;10806;52.250;21.066;2022-09-17T10:45:44;14.13;;;3.03;;
21293;SDS011;10806;52.250;21.066;2022-09-17T10:48:20;17.80;;;3.30;;
21293;SDS011;10806;52.250;21.066;2022-09-17T10:50:50;20.08;;;3.60;;
21293;SDS011;10806;52.250;21.066;2022-09-17T10:53:18;17.23;;;3.47;;
21293;SDS011;10806;52.250;21.066;2022-09-17T10:55:53;21.50;;;3.63;;
21293;SDS011;10806;52.250;21.066;2022-09-17T11:09:57;12.52;;;3.15;;
21293;SDS011;10806;52.250;21.066;2022-09-17T11:18:33;38.78;;;4.35;;
21293;SDS011;10806;52.250;21.066;2022-09-17T11:23:54;38.88;;;4.70;;
21293;SDS011;10806;52.250;21.066;2022-09-17T11:32:11;26.23;;;4.40;;
21293;SDS011;10806;52.250;21.066;2022-09-17T11:34:44;29.40;;;4.90;;
21293;SDS011;10806;52.250;21.066;2022-09-17T11:37:24;31.08;;;5.13;;
21293;SDS011;10806;52.250;21.066;2022-09-17T11:42:44;27.38;;;4.78;;
21293;SDS011;10806;52.250;21.066;2022-09-17T11:45:23;29.27;;;4.60;;
21293;SDS011;10806;52.250;21.066;2022-09-17T11:48:15;25.55;;;4.20;;
21293;SDS011;10806;52.250;21.066;2022-09-17T11:50:58;22.23;;;4.53;;
21293;SDS011;10806;52.250;21.066;2022-09-17T11:53:43;19.77;;;3.63;;
21293;SDS011;10806;52.250;21.066;2022-09-17T11:56:24;30.13;;;4.32;;
21293;SDS011;10806;52.250;21.066;2022-09-17T12:01:34;26.20;;;4.63;;
21293;SDS011;10806;52.250;21.066;2022-09-17T12:07:15;30.27;;;4.78;;
21293;SDS011;10806;52.250;21.066;2022-09-17T12:12:54;35.72;;;5.65;;
21293;SDS011;10806;52.250;21.066;2022-09-17T12:15:27;38.67;;;5.10;;
21293;SDS011;10806;52.250;21.066;2022-09-17T12:20:40;25.67;;;4.75;;
21293;SDS011;10806;52.250;21.066;2022-09-17T12:23:10;32.45;;;5.78;;
21293;SDS011;10806;52.250;21.066;2022-09-17T12:25:44;41.10;;;5.75;;
21293;SDS011;10806;52.250;21.066;2022-09-17T12:28:30;34.08;;;6.75;;
21293;SDS011;10806;52.250;21.066;2022-09-17T12:31:04;32.50;;;7.35;;
21293;SDS011;10806;52.250;21.066;2022-09-17T12:33:41;38.05;;;7.80;;
21293;SDS011;10806;52.250;21.066;2022-09-17T12:36:23;29.90;;;7.25;;
21293;SDS011;10806;52.250;21.066;2022-09-17T12:42:40;27.00;;;7.47;;
21293;SDS011;10806;52.250;21.066;2022-09-17T12:50:35;23.80;;;7.78;;
21293;SDS011;10806;52.250;21.066;2022-09-17T12:53:22;28.95;;;8.30;;
21293;SDS011;10806;52.250;21.066;2022-09-17T13:03:54;42.40;;;8.48;;
21293;SDS011;10806;52.250;21.066;2022-09-17T13:09:36;40.85;;;8.85;;
21293;SDS011;10806;52.250;21.066;2022-09-17T13:20:30;31.67;;;8.13;;
21293;SDS011;10806;52.250;21.066;2022-09-17T13:23:13;27.00;;;7.28;;
21293;SDS011;10806;52.250;21.066;2022-09-17T13:25:48;30.27;;;7.68;;
21293;SDS011;10806;52.250;21.066;2022-09-17T13:28:16;33.95;;;7.55;;
21293;SDS011;10806;52.250;21.066;2022-09-17T13:39:09;22.70;;;6.57;;
21293;SDS011;10806;52.250;21.066;2022-09-17T13:41:58;23.23;;;6.30;;
21293;SDS011;10806;52.250;21.066;2022-09-17T13:44:32;19.95;;;6.30;;
21293;SDS011;10806;52.250;21.066;2022-09-17T13:47:11;28.52;;;5.90;;
21293;SDS011;10806;52.250;21.066;2022-09-17T13:49:52;16.48;;;4.38;;
21293;SDS011;10806;52.250;21.066;2022-09-17T13:54:56;17.33;;;3.78;;
21293;SDS011;10806;52.250;21.066;2022-09-17T13:57:22;9.77;;;3.25;;
21293;SDS011;10806;52.250;21.066;2022-09-17T13:59:53;10.95;;;3.40;;
21293;SDS011;10806;52.250;21.066;2022-09-17T14:04:54;8.98;;;3.22;;
21293;SDS011;10806;52.250;21.066;2022-09-17T14:07:45;14.63;;;3.13;;
21293;SDS011;10806;52.250;21.066;2022-09-17T14:10:39;20.20;;;3.95;;
21293;SDS011;10806;52.250;21.066;2022-09-17T14:13:22;33.00;;;4.43;;
21293;SDS011;10806;52.250;21.066;2022-09-17T14:16:20;32.33;;;4.95;;
21293;SDS011;10806;52.250;21.066;2022-09-17T14:18:54;21.50;;;4.57;;
21293;SDS011;10806;52.250;21.066;2022-09-17T14:21:29;26.55;;;4.88;;
21293;SDS011;10806;52.250;21.066;2022-09-17T14:24:03;28.88;;;4.90;;
21293;SDS011;10806;52.250;21.066;2022-09-17T14:26:53;18.23;;;4.07;;
21293;SDS011;10806;52.250;21.066;2022-09-17T14:29:45;21.25;;;3.80;;
21293;SDS011;10806;52.250;21.066;2022-09-17T14:32:41;17.77;;;3.80;;
21293;SDS011;10806;52.250;21.066;2022-09-17T14:37:42;20.30;;;3.72;;
21293;SDS011;10806;52.250;21.066;2022-09-17T14:40:12;16.27;;;3.53;;
21293;SDS011;10806;52.250;21.066;2022-09-17T14:42:41;14.32;;;3.33;;
21293;SDS011;10806;52.250;21.066;2022-09-17T14:45:27;9.73;;;3.22;;
21293;SDS011;10806;52.250;21.066;2022-09-17T14:50:50;17.23;;;3.50;;
21293;SDS011;10806;52.250;21.066;2022-09-17T14:53:17;9.43;;;2.70;;
21293;SDS011;10806;52.250;21.066;2022-09-17T14:55:45;12.05;;;3.25;;
21293;SDS011;10806;52.250;21.066;2022-09-17T14:58:24;11.90;;;3.10;;
21293;SDS011;10806;52.250;21.066;2022-09-17T15:01:00;12.00;;;2.95;;
21293;SDS011;10806;52.250;21.066;2022-09-17T15:03:26;9.45;;;2.75;;
21293;SDS011;10806;52.250;21.066;2022-09-17T15:05:52;7.40;;;2.58;;
21293;SDS011;10806;52.250;21.066;2022-09-17T15:10:46;11.68;;;2.67;;
21293;SDS011;10806;52.250;21.066;2022-09-17T15:13:18;9.75;;;2.75;;
21293;SDS011;10806;52.250;21.066;2022-09-17T15:15:59;8.93;;;2.00;;
21293;SDS011;10806;52.250;21.066;2022-09-17T15:18:32;6.35;;;2.35;;
21293;SDS011;10806;52.250;21.066;2022-09-17T15:21:02;8.52;;;2.30;;
21293;SDS011;10806;52.250;21.066;2022-09-17T15:23:31;9.27;;;2.60;;
21293;SDS011;10806;52.250;21.066;2022-09-17T15:25:59;9.27;;;2.40;;
21293;SDS011;10806;52.250;21.066;2022-09-17T15:28:28;9.52;;;2.42;;
21293;SDS011;10806;52.250;21.066;2022-09-17T15:30:59;5.25;;;2.20;;
21293;SDS011;10806;52.250;21.066;2022-09-17T15:33:26;9.55;;;2.70;;
21293;SDS011;10806;52.250;21.066;2022-09-17T15:35:58;9.07;;;2.22;;
21293;SDS011;10806;52.250;21.066;2022-09-17T15:38:27;7.63;;;2.50;;
21293;SDS011;10806;52.250;21.066;2022-09-17T15:40:54;6.57;;;2.22;;
21293;SDS011;10806;52.250;21.066;2022-09-17T15:43:36;9.90;;;2.75;;
21293;SDS011;10806;52.250;21.066;2022-09-17T15:46:24;6.28;;;2.78;;
21293;SDS011;10806;52.250;21.066;2022-09-17T15:48:56;3.78;;;2.80;;
21293;SDS011;10806;52.250;21.066;2022-09-17T15:54:02;23.65;;;3.15;;
21293;SDS011;10806;52.250;21.066;2022-09-17T15:56:30;9.55;;;2.53;;
21293;SDS011;10806;52.250;21.066;2022-09-17T16:01:53;8.20;;;2.60;;
21293;SDS011;10806;52.250;21.066;2022-09-17T16:09:43;11.13;;;3.35;;
21293;SDS011;10806;52.250;21.066;2022-09-17T16:12:12;20.02;;;3.50;;
21293;SDS011;10806;52.250;21.066;2022-09-17T16:14:44;9.43;;;2.90;;
21293;SDS011;10806;52.250;21.066;2022-09-17T16:17:24;23.77;;;3.63;;
21293;SDS011;10806;52.250;21.066;2022-09-17T16:19:59;24.55;;;3.30;;
21293;SDS011;10806;52.250;21.066;2022-09-17T16:22:36;17.42;;;3.88;;
21293;SDS011;10806;52.250;21.066;2022-09-17T16:25:02;13.02;;;3.50;;
21293;SDS011;10806;52.250;21.066;2022-09-17T16:27:29;17.77;;;3.40;;
21293;SDS011;10806;52.250;21.066;2022-09-17T16:30:04;17.13;;;3.25;;
21293;SDS011;10806;52.250;21.066;2022-09-17T16:32:33;15.27;;;3.90;;
21293;SDS011;10806;52.250;21.066;2022-09-17T16:34:59;12.27;;;3.60;;
21293;SDS011;10806;52.250;21.066;2022-09-17T16:37:25;13.85;;;3.53;;
21293;SDS011;10806;52.250;21.066;2022-09-17T16:39:50;11.48;;;3.28;;
21293;SDS011;10806;52.250;21.066;2022-09-17T16:42:16;11.82;;;3.40;;
21293;SDS011;10806;52.250;21.066;2022-09-17T16:44:42;22.55;;;3.78;;
21293;SDS011;10806;52.250;21.066;2022-09-17T16:47:08;14.10;;;3.13;;
21293;SDS011;10806;52.250;21.066;2022-09-17T16:49:33;10.60;;;3.70;;
21293;SDS011;10806;52.250;21.066;2022-09-17T16:51:59;8.52;;;3.00;;
21293;SDS011;10806;52.250;21.066;2022-09-17T16:54:25;9.52;;;3.28;;
21293;SDS011;10806;52.250;21.066;2022-09-17T16:56:50;10.68;;;3.13;;
21293;SDS011;10806;52.250;21.066;2022-09-17T16:59:16;7.78;;;3.40;;
21293;SDS011;10806;52.250;21.066;2022-09-17T17:01:41;17.88;;;3.42;;
21293;SDS011;10806;52.250;21.066;2022-09-17T17:04:07;26.70;;;3.97;;
21293;SDS011;10806;52.250;21.066;2022-09-17T17:06:33;17.63;;;3.88;;
21293;SDS011;10806;52.250;21.066;2022-09-17T17:08:58;19.20;;;3.92;;
21293;SDS011;10806;52.250;21.066;2022-09-17T17:11:27;20.15;;;3.65;;
21293;SDS011;10806;52.250;21.066;2022-09-17T17:13:53;17.90;;;3.83;;
21293;SDS011;10806;52.250;21.066;2022-09-17T17:16:22;18.05;;;3.30;;
21293;SDS011;10806;52.250;21.066;2022-09-17T17:18:49;12.43;;;3.53;;
21293;SDS011;10806;52.250;21.066;2022-09-17T17:21:17;11.27;;;3.17;;
21293;SDS011;10806;52.250;21.066;2022-09-17T17:23:44;17.15;;;3.17;;
21293;SDS011;10806;52.250;21.066;2022-09-17T17:26:11;19.60;;;3.47;;
21293;SDS011;10806;52.250;21.066;2022-09-17T17:28:38;13.43;;;3.10;;
21293;SDS011;10806;52.250;21.066;2022-09-17T17:31:03;15.88;;;3.42;;
21293;SDS011;10806;52.250;21.066;2022-09-17T17:33:30;18.85;;;3.17;;
21293;SDS011;10806;52.250;21.066;2022-09-17T17:35:59;12.30;;;3.30;;
21293;SDS011;10806;52.250;21.066;2022-09-17T17:38:26;11.95;;;3.05;;
21293;SDS011;10806;52.250;21.066;2022-09-17T17:41:05;11.13;;;3.22;;
21293;SDS011;10806;52.250;21.066;2022-09-17T17:43:33;17.15;;;3.38;;
21293;SDS011;10806;52.250;21.066;2022-09-17T17:45:59;13.93;;;3.30;;
21293;SDS011;10806;52.250;21.066;2022-09-17T17:48:25;12.82;;;3.17;;
21293;SDS011;10806;52.250;21.066;2022-09-17T17:50:51;13.85;;;2.80;;
21293;SDS011;10806;52.250;21.066;2022-09-17T17:53:17;16.83;;;3.58;;
21293;SDS011;10806;52.250;21.066;2022-09-17T17:55:42;10.95;;;2.75;;